Terminal Aerodrome Forecast
Issued by NWS Charleston, WV

Current Version | Previous Version | Graphics & Text | Print | Product List | Glossary On
Versions: 1 2 3 4 5 6 7 8 9 10 11 12 13 14 15 16 17 18 19 20 21 22 23 24 25 26 27 28 29 30 31 32 33 34 35 36
000
FTUS41 KRLX 250217 AAA
TAFPKB
TAF AMD
KPKB 250217Z 2502/2524 08005KT 6SM BR SCT009 OVC015
     FM250400 14008KT 4SM -SHRA BR SCT009 OVC028
     FM250800 19009KT 2SM +SHRA BR OVC035
     FM251200 20010G20KT 3SM +SHRA BR OVC008
     FM251500 24008G14KT P6SM BKN200=

USA.gov is the U.S. government's official web portal to all federal, state and local government web resources and services.